createdAt,value
2022-11-04T00:01:46.693Z,10.38
2022-11-04T00:04:15.769Z,10.33
2022-11-04T00:06:43.726Z,10.34
2022-11-04T00:09:13.578Z,10.33
2022-11-04T00:12:24.817Z,10.28
2022-11-04T00:14:52.615Z,10.29
2022-11-04T00:17:20.490Z,10.24
2022-11-04T00:20:13.238Z,10.27
2022-11-04T00:23:01.093Z,10.27
2022-11-04T00:25:47.271Z,10.27
2022-11-04T00:28:35.398Z,10.25
2022-11-04T00:31:23.678Z,10.26
2022-11-04T00:33:52.485Z,10.23
2022-11-04T00:36:20.330Z,10.23
2022-11-04T00:38:48.150Z,10.19
2022-11-04T00:41:28.426Z,10.18
2022-11-04T00:44:01.222Z,10.16
2022-11-04T00:46:30.098Z,10.16
2022-11-04T00:48:57.915Z,10.15
2022-11-04T00:51:25.721Z,10.15
2022-11-04T00:53:53.569Z,10.13
2022-11-04T00:56:21.348Z,10.15
2022-11-04T00:58:50.726Z,10.10
2022-11-04T01:01:19.035Z,10.10
2022-11-04T01:03:51.037Z,10.10
2022-11-04T01:06:19.176Z,10.09
2022-11-04T01:08:46.969Z,10.07
2022-11-04T01:11:14.851Z,10.06
2022-11-04T01:13:42.840Z,10.04
2022-11-04T01:16:11.592Z,10.05
2022-11-04T01:18:39.504Z,10.06
2022-11-04T01:21:08.057Z,10.05
2022-11-04T01:23:36.006Z,10.07
2022-11-04T01:26:07.482Z,10.10
2022-11-04T01:28:35.306Z,10.10
2022-11-04T01:31:20.174Z,10.12
2022-11-04T01:33:49.025Z,10.11
2022-11-04T01:36:17.098Z,10.12
2022-11-04T01:38:45.117Z,10.15
2022-11-04T01:41:26.660Z,10.20
2022-11-04T01:44:05.364Z,10.14
2022-11-04T01:46:47.700Z,10.11
2022-11-04T01:49:37.895Z,10.10
2022-11-04T01:52:14.617Z,10.12
2022-11-04T01:54:42.646Z,10.13
2022-11-04T01:57:14.882Z,10.12
2022-11-04T01:59:43.007Z,10.14
2022-11-04T02:02:10.997Z,10.13
2022-11-04T02:04:39.433Z,10.12
2022-11-04T02:07:08.704Z,10.12
2022-11-04T02:09:37.341Z,10.10
2022-11-04T02:12:23.776Z,10.08
2022-11-04T02:14:51.610Z,10.07
2022-11-04T02:17:19.273Z,10.06
2022-11-04T02:20:17.635Z,10.01
2022-11-04T02:23:00.576Z,10.00
2022-11-04T02:25:46.999Z,10.02
2022-11-04T02:28:26.836Z,10.02
2022-11-04T02:30:58.095Z,10.01
2022-11-04T02:33:51.827Z,10.00
2022-11-04T02:36:50.269Z,10.00
2022-11-04T02:39:32.121Z,9.96
2022-11-04T02:42:28.955Z,9.90
2022-11-04T02:45:09.762Z,9.88
2022-11-04T02:47:38.196Z,9.90
2022-11-04T02:50:16.448Z,9.88
2022-11-04T02:53:01.462Z,9.79
2022-11-04T02:55:56.413Z,9.79
2022-11-04T02:58:30.980Z,9.75
2022-11-04T03:00:58.991Z,9.70
2022-11-04T03:03:28.160Z,9.63
2022-11-04T03:05:56.401Z,9.56
2022-11-04T03:08:39.294Z,9.54
2022-11-04T03:11:13.229Z,9.52
2022-11-04T03:14:00.375Z,9.52
2022-11-04T03:16:37.567Z,9.56
2022-11-04T03:19:08.144Z,9.55
2022-11-04T03:21:38.527Z,9.53
2022-11-04T03:24:06.563Z,9.54
2022-11-04T03:26:43.250Z,9.54
2022-11-04T03:29:32.550Z,9.47
2022-11-04T03:32:05.771Z,9.44
2022-11-04T03:34:33.639Z,9.42
2022-11-04T03:37:01.380Z,9.41
2022-11-04T03:39:29.133Z,9.40
2022-11-04T03:41:58.217Z,9.34
2022-11-04T03:44:26.192Z,9.38
2022-11-04T03:46:54.966Z,9.36
2022-11-04T03:49:23.662Z,9.37
2022-11-04T03:51:54.326Z,9.36
2022-11-04T03:54:22.141Z,9.34
2022-11-04T03:57:17.952Z,9.28
2022-11-04T03:59:45.541Z,9.18
2022-11-04T04:02:57.165Z,9.20
2022-11-04T04:05:32.249Z,9.21
2022-11-04T04:08:12.088Z,9.22
2022-11-04T04:11:17.475Z,9.18
2022-11-04T04:14:06.392Z,9.19
2022-11-04T04:16:36.209Z,9.21
2022-11-04T04:19:22.194Z,9.24
2022-11-04T04:22:02.652Z,9.25
2022-11-04T04:24:53.285Z,9.24
2022-11-04T04:27:33.620Z,9.25
2022-11-04T04:30:19.949Z,9.22
2022-11-04T04:32:53.164Z,9.19
2022-11-04T04:35:43.754Z,9.16
2022-11-04T04:38:46.397Z,9.16
2022-11-04T04:41:51.117Z,9.12
2022-11-04T04:44:44.997Z,9.12
2022-11-04T04:47:21.060Z,9.16
2022-11-04T04:49:55.731Z,9.14
2022-11-04T04:52:23.728Z,9.14
2022-11-04T04:54:51.522Z,9.16
2022-11-04T04:57:19.305Z,9.10
2022-11-04T04:59:47.046Z,9.13
2022-11-04T05:02:14.980Z,9.16
2022-11-04T05:04:42.876Z,9.12
2022-11-04T05:07:11.217Z,9.12
2022-11-04T05:09:39.028Z,9.08
2022-11-04T05:12:07.045Z,9.07
2022-11-04T05:14:34.801Z,9.10
2022-11-04T05:17:02.586Z,9.07
2022-11-04T05:19:30.362Z,9.07
2022-11-04T05:21:58.170Z,9.06
2022-11-04T05:24:25.964Z,9.09
2022-11-04T05:26:53.790Z,9.13
2022-11-04T05:29:21.602Z,9.16
2022-11-04T05:31:49.463Z,9.20
2022-11-04T05:34:17.238Z,9.19
2022-11-04T05:36:45.022Z,9.19
2022-11-04T05:39:14.388Z,9.22
2022-11-04T05:41:42.262Z,9.22
2022-11-04T05:44:10.778Z,9.18
2022-11-04T05:46:38.580Z,9.19
2022-11-04T05:49:06.682Z,9.15
2022-11-04T05:51:34.604Z,9.13
2022-11-04T05:54:02.867Z,9.12
2022-11-04T05:56:30.697Z,9.14
2022-11-04T05:58:58.476Z,9.15
2022-11-04T06:01:30.273Z,9.11
2022-11-04T06:03:58.711Z,9.13
2022-11-04T06:06:27.064Z,9.17
2022-11-04T06:08:55.115Z,9.17
2022-11-04T06:11:23.128Z,9.17
2022-11-04T06:13:51.076Z,9.18
2022-11-04T06:16:18.837Z,9.20
2022-11-04T06:18:46.695Z,9.24
2022-11-04T06:21:14.416Z,9.22
2022-11-04T06:23:45.527Z,9.24
2022-11-04T06:26:13.681Z,9.26
2022-11-04T06:28:42.060Z,9.23
2022-11-04T06:31:10.626Z,9.20
2022-11-04T06:33:38.389Z,9.16
2022-11-04T06:36:07.377Z,9.17
2022-11-04T06:38:36.456Z,9.16
2022-11-04T06:43:33.297Z,9.22
2022-11-04T06:46:02.457Z,9.24
2022-11-04T06:48:31.873Z,9.26
2022-11-04T06:51:00.516Z,9.25
2022-11-04T06:53:28.874Z,9.25
2022-11-04T06:56:03.163Z,9.27
2022-11-04T06:58:31.042Z,9.25
2022-11-04T07:00:58.921Z,9.24
2022-11-04T07:03:26.715Z,9.26
2022-11-04T07:05:54.572Z,9.27
2022-11-04T07:08:22.363Z,9.24
2022-11-04T07:10:50.081Z,9.29
2022-11-04T07:13:18.826Z,9.32
2022-11-04T07:15:46.776Z,9.34
2022-11-04T07:18:14.532Z,9.33
2022-11-04T07:20:42.326Z,9.58
2022-11-04T07:23:10.044Z,9.72
2022-11-04T07:25:37.873Z,9.77
2022-11-04T07:28:06.848Z,9.70
2022-11-04T07:30:34.655Z,9.68
2022-11-04T07:33:02.431Z,9.64
2022-11-04T07:35:30.186Z,9.65
2022-11-04T07:37:57.930Z,9.64
2022-11-04T07:40:25.684Z,9.65
2022-11-04T07:42:53.417Z,9.67
2022-11-04T07:45:21.214Z,9.68
2022-11-04T07:47:49.015Z,9.72
2022-11-04T07:50:16.805Z,9.72
2022-11-04T07:52:44.681Z,9.69
2022-11-04T07:55:15.053Z,9.69
2022-11-04T07:57:42.810Z,9.72
2022-11-04T08:00:11.355Z,9.73
2022-11-04T08:02:39.277Z,9.77
2022-11-04T08:05:07.671Z,9.80
2022-11-04T08:07:35.504Z,9.81
2022-11-04T08:10:03.769Z,9.83
2022-11-04T08:12:33.413Z,9.85
2022-11-04T08:15:01.342Z,9.86
2022-11-04T08:17:29.119Z,9.90
2022-11-04T08:19:56.991Z,9.93
2022-11-04T08:22:27.616Z,9.97
2022-11-04T08:24:59.643Z,10.00
2022-11-04T08:27:27.471Z,10.01
2022-11-04T08:29:55.232Z,10.01
2022-11-04T08:32:23.043Z,10.02
2022-11-04T08:34:50.927Z,10.01
2022-11-04T08:37:19.463Z,10.05
2022-11-04T08:39:47.420Z,10.07
2022-11-04T08:42:15.196Z,10.08
2022-11-04T08:44:44.059Z,10.13
2022-11-04T08:47:11.899Z,10.13
2022-11-04T08:49:43.187Z,10.17
2022-11-04T08:52:11.268Z,10.20
2022-11-04T08:54:38.984Z,10.23
2022-11-04T08:57:06.985Z,10.28
2022-11-04T08:59:34.794Z,10.33
2022-11-04T09:02:02.551Z,10.40
2022-11-04T09:04:30.368Z,10.45
2022-11-04T09:06:59.246Z,10.46
2022-11-04T09:09:27.064Z,10.49
2022-11-04T09:11:55.412Z,10.50
2022-11-04T09:14:24.937Z,10.57
2022-11-04T09:16:52.708Z,10.64
2022-11-04T09:19:20.466Z,10.68
2022-11-04T09:21:48.226Z,10.74
2022-11-04T09:24:16.173Z,10.78
2022-11-04T09:26:45.874Z,10.82
2022-11-04T09:29:13.592Z,10.87
2022-11-04T09:31:41.679Z,10.91
2022-11-04T09:34:09.432Z,10.93
2022-11-04T09:36:37.232Z,10.96
2022-11-04T09:39:05.676Z,11.01
2022-11-04T09:41:55.311Z,11.04
2022-11-04T09:44:24.849Z,11.10
2022-11-04T09:46:54.056Z,11.14
2022-11-04T09:49:21.978Z,11.21
2022-11-04T09:51:54.897Z,11.32
2022-11-04T09:54:25.739Z,11.40
2022-11-04T09:56:54.247Z,11.45
2022-11-04T09:59:30.272Z,11.53
2022-11-04T10:02:01.450Z,11.64
2022-11-04T10:04:47.792Z,11.72
2022-11-04T10:07:32.517Z,11.80
2022-11-04T10:10:12.325Z,11.90
2022-11-04T10:12:54.765Z,11.99
2022-11-04T10:15:41.421Z,12.06
2022-11-04T10:18:30.611Z,12.14
2022-11-04T10:21:23.620Z,12.15
2022-11-04T10:24:05.459Z,12.22
2022-11-04T10:26:53.755Z,12.26
2022-11-04T10:29:32.126Z,12.23
2022-11-04T10:31:59.917Z,12.15
2022-11-04T10:34:40.854Z,12.10
2022-11-04T10:37:11.831Z,12.16
2022-11-04T10:39:43.550Z,12.22
2022-11-04T10:42:13.719Z,12.28
2022-11-04T10:44:41.552Z,12.33
2022-11-04T10:47:17.989Z,12.37
2022-11-04T10:50:26.615Z,12.44
2022-11-04T10:52:43.659Z,12.45
2022-11-04T10:55:28.050Z,12.47
2022-11-04T10:57:59.137Z,12.46
2022-11-04T11:00:35.080Z,12.45
2022-11-04T11:03:02.950Z,12.47
2022-11-04T11:05:30.768Z,12.48
2022-11-04T11:07:59.640Z,12.53
2022-11-04T11:10:30.224Z,12.60
2022-11-04T11:12:59.032Z,12.73
2022-11-04T11:15:27.360Z,12.88
2022-11-04T11:18:01.113Z,13.01
2022-11-04T11:20:28.992Z,13.11
2022-11-04T11:23:03.534Z,13.14
2022-11-04T11:25:32.943Z,13.16
2022-11-04T11:28:26.768Z,13.12
2022-11-04T11:31:05.413Z,12.95
2022-11-04T11:33:37.486Z,12.99
2022-11-04T11:36:15.867Z,13.20
2022-11-04T11:39:06.989Z,13.18
2022-11-04T11:41:40.986Z,13.38
2022-11-04T11:44:39.782Z,13.47
2022-11-04T11:47:09.001Z,13.64
2022-11-04T11:49:39.198Z,13.83
2022-11-04T11:52:31.087Z,14.13
2022-11-04T11:55:18.993Z,14.39
2022-11-04T12:01:03.138Z,14.79
2022-11-04T12:09:57.761Z,14.33
2022-11-04T12:12:37.366Z,14.07
2022-11-04T12:15:26.710Z,13.75
2022-11-04T12:17:54.429Z,13.58
2022-11-04T12:21:07.292Z,13.55
2022-11-04T12:23:45.171Z,13.60
2022-11-04T12:26:35.033Z,13.49
2022-11-04T12:29:21.501Z,13.55
2022-11-04T12:32:11.375Z,13.43
2022-11-04T12:35:49.945Z,13.48
2022-11-04T12:38:32.777Z,13.51
2022-11-04T12:42:06.428Z,13.52
2022-11-04T12:44:31.268Z,13.48
2022-11-04T12:47:40.552Z,13.36
2022-11-04T12:50:19.520Z,13.29
2022-11-04T12:52:56.970Z,13.20
2022-11-04T12:55:42.541Z,13.10
2022-11-04T12:58:33.549Z,13.05
2022-11-04T13:01:11.038Z,12.98
2022-11-04T13:03:57.491Z,12.93
2022-11-04T13:06:44.174Z,12.94
2022-11-04T13:09:31.632Z,12.92
2022-11-04T13:12:05.023Z,12.94
2022-11-04T13:14:52.664Z,12.96
2022-11-04T13:17:27.355Z,12.93
2022-11-04T13:19:59.862Z,12.92
2022-11-04T13:22:33.939Z,12.88
2022-11-04T13:25:13.745Z,12.86
2022-11-04T13:27:46.170Z,12.90
2022-11-04T13:30:23.201Z,12.87
2022-11-04T13:32:59.916Z,12.82
2022-11-04T13:35:42.352Z,12.86
2022-11-04T13:38:15.404Z,12.83
2022-11-04T13:41:08.894Z,12.81
2022-11-04T13:43:39.395Z,12.76
2022-11-04T13:46:09.857Z,12.74
2022-11-04T13:48:39.298Z,12.69
2022-11-04T13:51:08.654Z,12.70
2022-11-04T13:53:42.600Z,12.73
2022-11-04T13:56:32.350Z,12.70
2022-11-04T13:59:02.211Z,12.70
2022-11-04T14:01:34.371Z,12.74
2022-11-04T14:04:31.558Z,12.85
2022-11-04T14:07:05.862Z,12.90
2022-11-04T14:09:35.024Z,12.97
2022-11-04T14:12:11.955Z,12.99
2022-11-04T14:14:43.359Z,12.97
2022-11-04T14:17:35.883Z,12.91
2022-11-04T14:20:07.186Z,12.80
2022-11-04T14:22:49.263Z,12.78
2022-11-04T14:25:27.556Z,12.70
2022-11-04T14:28:00.340Z,12.67
2022-11-04T14:30:47.230Z,12.58
2022-11-04T14:33:36.610Z,12.52
2022-11-04T14:36:22.745Z,12.50
2022-11-04T14:39:01.694Z,12.46
2022-11-04T14:41:29.298Z,12.45
2022-11-04T14:43:59.169Z,12.47
2022-11-04T14:46:29.524Z,12.41
2022-11-04T14:48:58.978Z,12.37
2022-11-04T14:51:32.076Z,12.36
2022-11-04T14:54:12.151Z,12.38
2022-11-04T14:56:39.898Z,12.41
2022-11-04T14:59:08.089Z,12.44
2022-11-04T15:01:39.870Z,12.45
2022-11-04T15:04:22.401Z,12.47
2022-11-04T15:07:03.113Z,12.43
2022-11-04T15:09:36.818Z,12.43
2022-11-04T15:12:31.216Z,12.42
2022-11-04T15:14:59.295Z,12.35
2022-11-04T15:17:29.725Z,12.32
2022-11-04T15:19:58.794Z,12.32
2022-11-04T15:22:26.517Z,12.19
2022-11-04T15:24:54.321Z,12.18
2022-11-04T15:27:26.911Z,12.18
2022-11-04T15:29:55.997Z,12.13
2022-11-04T15:32:23.735Z,12.11
2022-11-04T15:34:51.518Z,12.00
2022-11-04T15:37:19.384Z,11.98
2022-11-04T15:39:48.688Z,11.96
2022-11-04T15:42:40.834Z,11.93
2022-11-04T15:45:38.326Z,11.85
2022-11-04T15:48:39.120Z,11.79
2022-11-04T15:51:26.073Z,11.68
2022-11-04T15:54:04.435Z,11.60
2022-11-04T15:56:40.537Z,11.50
2022-11-04T15:59:10.605Z,11.43
2022-11-04T16:01:48.049Z,11.35
2022-11-04T16:04:16.617Z,11.32
2022-11-04T16:06:45.262Z,11.33
2022-11-04T16:09:24.004Z,11.27
2022-11-04T16:12:16.579Z,11.23
2022-11-04T16:14:52.017Z,11.20
2022-11-04T16:17:20.376Z,11.17
2022-11-04T16:19:49.517Z,11.19
2022-11-04T16:22:45.960Z,11.16
2022-11-04T16:25:21.147Z,11.15
2022-11-04T16:27:48.968Z,11.13
2022-11-04T16:30:20.988Z,11.12
2022-11-04T16:32:49.688Z,11.09
2022-11-04T16:35:22.985Z,11.10
2022-11-04T16:37:51.966Z,11.06
2022-11-04T16:40:20.672Z,11.03
2022-11-04T16:42:48.792Z,10.97
2022-11-04T16:45:30.845Z,10.94
2022-11-04T16:48:03.662Z,10.87
2022-11-04T16:50:33.151Z,10.88
2022-11-04T16:53:00.930Z,10.87
2022-11-04T16:55:28.772Z,10.83
2022-11-04T16:58:00.931Z,10.78
2022-11-04T17:00:28.824Z,10.75
2022-11-04T17:02:56.979Z,10.75
2022-11-04T17:05:24.827Z,10.71
2022-11-04T17:07:55.444Z,10.68
2022-11-04T17:10:26.496Z,10.70
2022-11-04T17:12:54.399Z,10.72
2022-11-04T17:15:22.250Z,10.72
2022-11-04T17:17:50.100Z,10.74
2022-11-04T17:20:18.738Z,10.73
2022-11-04T17:22:47.906Z,10.74
2022-11-04T17:25:20.981Z,10.75
2022-11-04T17:27:49.463Z,10.74
2022-11-04T17:30:18.164Z,10.80
2022-11-04T17:32:46.303Z,10.76
2022-11-04T17:35:14.096Z,10.75
2022-11-04T17:37:42.051Z,10.77
2022-11-04T17:40:13.208Z,10.77
2022-11-04T17:42:59.432Z,10.77
2022-11-04T17:45:27.215Z,10.76
2022-11-04T17:47:55.041Z,10.77
2022-11-04T17:50:23.050Z,10.76
2022-11-04T17:52:50.824Z,10.78
2022-11-04T17:55:23.164Z,10.76
2022-11-04T17:57:54.045Z,10.77
2022-11-04T18:00:25.450Z,10.77
2022-11-04T18:02:53.335Z,10.75
2022-11-04T18:05:21.521Z,10.74
2022-11-04T18:07:49.261Z,10.73
2022-11-04T18:10:17.082Z,10.69
2022-11-04T18:12:45.054Z,10.68
2022-11-04T18:15:13.668Z,10.63
2022-11-04T18:17:42.139Z,10.59
2022-11-04T18:20:14.187Z,10.54
2022-11-04T18:22:42.290Z,10.50
2022-11-04T18:25:10.879Z,10.46
2022-11-04T18:27:38.750Z,10.44
2022-11-04T18:30:11.945Z,10.40
2022-11-04T18:32:39.821Z,10.37
2022-11-04T18:35:07.978Z,10.35
2022-11-04T18:37:35.751Z,10.30
2022-11-04T18:40:03.607Z,10.30
2022-11-04T18:42:31.418Z,10.27
2022-11-04T18:44:59.132Z,10.25
2022-11-04T18:47:26.988Z,10.22
2022-11-04T18:49:54.883Z,10.23
2022-11-04T18:52:22.875Z,10.22
2022-11-04T18:54:50.716Z,10.21
2022-11-04T18:57:18.596Z,10.21
2022-11-04T18:59:46.942Z,10.16
2022-11-04T19:02:21.440Z,10.15
2022-11-04T19:04:49.355Z,10.10
2022-11-04T19:07:17.206Z,10.12
2022-11-04T19:09:47.036Z,10.10
2022-11-04T19:12:34.483Z,10.13
2022-11-04T19:15:02.378Z,10.13
2022-11-04T19:17:30.194Z,10.10
2022-11-04T19:19:57.982Z,10.11
2022-11-04T19:22:25.765Z,10.11
2022-11-04T19:24:54.211Z,10.13
2022-11-04T19:27:24.058Z,10.13
2022-11-04T19:29:52.521Z,10.11
2022-11-04T19:32:20.393Z,10.08
2022-11-04T19:34:48.315Z,10.08
2022-11-04T19:37:16.193Z,10.06
2022-11-04T19:39:44.117Z,10.09
2022-11-04T19:42:31.220Z,10.09
2022-11-04T19:44:59.116Z,10.09
2022-11-04T19:47:31.898Z,10.09
2022-11-04T19:49:59.692Z,10.07
2022-11-04T19:52:27.477Z,10.06
2022-11-04T19:54:55.773Z,10.05
2022-11-04T19:57:23.678Z,10.07
2022-11-04T19:59:53.417Z,10.02
2022-11-04T20:02:21.827Z,10.01
2022-11-04T20:04:51.223Z,9.96
2022-11-04T20:07:19.043Z,9.95
2022-11-04T20:09:46.902Z,9.97
2022-11-04T20:12:33.515Z,9.98
2022-11-04T20:15:01.471Z,9.96
2022-11-04T20:17:29.548Z,9.93
2022-11-04T20:19:57.590Z,9.93
2022-11-04T20:22:33.142Z,9.92
2022-11-04T20:25:01.085Z,9.90
2022-11-04T20:27:28.922Z,9.88
2022-11-04T20:29:56.948Z,9.88
2022-11-04T20:32:24.827Z,9.95
2022-11-04T20:34:52.632Z,9.92
2022-11-04T20:40:10.671Z,9.85
2022-11-04T20:42:38.579Z,9.84
2022-11-04T20:45:06.898Z,9.82
2022-11-04T20:47:34.807Z,9.83
2022-11-04T20:50:02.590Z,9.83
2022-11-04T20:52:30.642Z,9.85
2022-11-04T20:54:58.498Z,9.83
2022-11-04T20:57:26.365Z,9.83
2022-11-04T20:59:54.591Z,9.82
2022-11-04T21:02:24.107Z,9.82
2022-11-04T21:04:52.985Z,9.80
2022-11-04T21:07:21.228Z,9.82
2022-11-04T21:09:52.238Z,9.82
2022-11-04T21:12:20.788Z,9.80
2022-11-04T21:14:51.667Z,9.79
2022-11-04T21:17:19.815Z,9.81
2022-11-04T21:19:47.746Z,9.79
2022-11-04T21:22:15.598Z,9.81
2022-11-04T21:24:43.426Z,9.77
2022-11-04T21:27:11.274Z,9.75
2022-11-04T21:29:39.128Z,9.75
2022-11-04T21:32:07.365Z,9.73
2022-11-04T21:34:35.163Z,9.68
2022-11-04T21:37:02.911Z,9.69
2022-11-04T21:39:30.873Z,9.68
2022-11-04T21:41:58.698Z,9.65
2022-11-04T21:44:26.545Z,9.66
2022-11-04T21:46:54.847Z,9.66
2022-11-04T21:49:22.710Z,9.68
2022-11-04T21:51:50.581Z,9.66
2022-11-04T21:54:18.746Z,9.65
2022-11-04T21:56:47.780Z,9.65
2022-11-04T21:59:18.523Z,9.61
2022-11-04T22:01:47.026Z,9.62
2022-11-04T22:04:14.984Z,9.58
2022-11-04T22:06:42.808Z,9.59
2022-11-04T22:09:10.622Z,9.56
2022-11-04T22:11:40.516Z,9.49
2022-11-04T22:14:09.892Z,9.52
2022-11-04T22:16:39.763Z,9.49
2022-11-04T22:19:09.289Z,9.51
2022-11-04T22:21:39.975Z,9.49
2022-11-04T22:24:08.102Z,9.44
2022-11-04T22:26:36.016Z,9.49
2022-11-04T22:29:03.805Z,9.47
2022-11-04T22:31:36.291Z,9.46
2022-11-04T22:34:06.133Z,9.40
2022-11-04T22:36:34.221Z,9.39
2022-11-04T22:39:02.093Z,9.38
2022-11-04T22:41:32.164Z,9.37
2022-11-04T22:44:00.309Z,9.42
2022-11-04T22:46:29.793Z,9.45
2022-11-04T22:48:57.668Z,9.43
2022-11-04T22:51:25.516Z,9.47
2022-11-04T22:53:58.941Z,9.45
2022-11-04T22:56:28.354Z,9.40
2022-11-04T22:58:56.385Z,9.42
2022-11-04T23:01:24.301Z,9.36
2022-11-04T23:03:53.150Z,9.33
2022-11-04T23:06:21.055Z,9.30
2022-11-04T23:08:49.319Z,9.27
2022-11-04T23:11:37.752Z,9.26
2022-11-04T23:14:24.638Z,9.22
2022-11-04T23:17:14.215Z,9.23
2022-11-04T23:19:42.602Z,9.31
2022-11-04T23:22:48.666Z,9.35
2022-11-04T23:25:16.455Z,9.27
2022-11-04T23:28:07.516Z,9.25
2022-11-04T23:30:37.134Z,9.28
2022-11-04T23:33:07.036Z,9.18
2022-11-04T23:36:01.427Z,9.15
2022-11-04T23:38:32.532Z,9.15
2022-11-04T23:41:20.248Z,9.11
2022-11-04T23:43:48.119Z,9.07
2022-11-04T23:46:39.388Z,9.00
2022-11-04T23:49:47.498Z,8.95
2022-11-04T23:52:41.666Z,8.95
2022-11-04T23:55:28.735Z,8.93
2022-11-04T23:58:14.995Z,8.98
